Cut Bank Municipal Airport Cut Bank US
ICAO: KCTB
IATA: CTB
Category: Medium
Scheduled Services: No

Elevation: 3854 ft
TransAlt. 18000 ft.

Airport Communications:
SALT LAKE CITY CNTR:133.4
ASOS:119.025
GREAT FALLS RDO:122.2
CTAF/UNICOM:122.8

KCTB Zoom In..

If you have problems with the map follow the link
https://www.worldairports.se/pages/airport.php?
ICAO=KCTB

Runways:

(A) RW 05 length 5302 ft width 75 ft
---- / hdg 47

(B) RW 13 length 5300 ft width 75 ft
---- / hdg 135

(C) RW 23 length 5302 ft width 75 ft
---- / hdg 227

(D) RW 31 length 5300 ft width 75 ft
---- / hdg 315

Location; KCTB
Day. 13 / Time. 12.32 Zulu
* Altimeter: 29.87
* Temperature: -12° c. -10.4°f.
* Wind from: 360° Speed 10 kn.
Dewpoint: -14° c.
Visibility: 3/4 Statute Miles.
Conditions: Light Snow.Conditions: Mist.

KCTB 131232Z AUTO 36010KT 3/4SM -SN BR VV012 M12/M14 A2987 RMK AO2 P0001 T11171139


Wind From 360°
Speed 10 kn.

 
 
jpsmedia worldairports.se 2019   terms of use